createdAt,value
2019-04-11T00:01:47.805Z,91.86
2019-04-11T00:04:17.714Z,91.71
2019-04-11T00:06:48.382Z,91.59
2019-04-11T00:09:18.913Z,91.53
2019-04-11T00:11:50.329Z,91.79
2019-04-11T00:14:22.068Z,91.85
2019-04-11T00:16:53.380Z,91.67
2019-04-11T00:19:24.256Z,91.72
2019-04-11T00:21:55.238Z,92.19
2019-04-11T00:24:27.007Z,92.23
2019-04-11T00:26:57.749Z,92.69
2019-04-11T00:29:28.305Z,92.69
2019-04-11T00:31:59.019Z,92.83
2019-04-11T00:34:29.585Z,92.84
2019-04-11T00:37:00.998Z,92.79
2019-04-11T00:39:31.919Z,93.40
2019-04-11T00:42:02.651Z,93.41
2019-04-11T00:44:33.230Z,93.29
2019-04-11T00:47:04.773Z,93.29
2019-04-11T00:49:36.586Z,93.08
2019-04-11T00:52:07.247Z,92.94
2019-04-11T00:54:38.590Z,93.37
2019-04-11T00:57:09.494Z,93.37
2019-04-11T00:59:40.640Z,93.45
2019-04-11T01:02:11.590Z,93.19
2019-04-11T01:04:43.200Z,92.90
2019-04-11T01:07:14.503Z,92.98
2019-04-11T01:09:45.061Z,93.03
2019-04-11T01:12:16.533Z,92.92
2019-04-11T01:14:47.154Z,93.15
2019-04-11T01:17:18.049Z,92.95
2019-04-11T01:19:49.055Z,92.89
2019-04-11T01:22:20.226Z,92.88
2019-04-11T01:24:50.787Z,92.92
2019-04-11T01:27:21.663Z,92.71
2019-04-11T01:29:52.263Z,92.67
2019-04-11T01:32:24.380Z,92.70
2019-04-11T01:34:57.105Z,92.72
2019-04-11T01:37:28.054Z,92.66
2019-04-11T01:40:01.588Z,92.62
2019-04-11T01:42:33.349Z,92.70
2019-04-11T01:45:05.243Z,93.28
2019-04-11T01:47:59.369Z,93.39
2019-04-11T01:50:32.694Z,93.53
2019-04-11T01:53:03.683Z,93.62
2019-04-11T01:55:34.755Z,93.51
2019-04-11T01:58:06.572Z,93.33
2019-04-11T02:00:48.676Z,93.28
2019-04-11T02:03:23.633Z,93.08
2019-04-11T02:05:57.290Z,93.10
2019-04-11T02:08:28.217Z,93.36
2019-04-11T02:10:59.328Z,92.94
2019-04-11T02:13:30.083Z,93.12
2019-04-11T02:16:01.407Z,93.65
2019-04-11T02:18:32.010Z,93.71
2019-04-11T02:21:03.225Z,93.44
2019-04-11T02:23:51.109Z,93.43
2019-04-11T02:26:27.998Z,93.53
2019-04-11T02:28:59.355Z,93.48
2019-04-11T02:31:30.609Z,93.89
2019-04-11T02:34:02.459Z,93.72
2019-04-11T02:36:34.300Z,94.18
2019-04-11T02:39:16.416Z,93.79
2019-04-11T02:41:44.357Z,93.75
2019-04-11T02:44:32.058Z,93.57
2019-04-11T02:46:54.490Z,94.42
2019-04-11T02:49:23.758Z,94.61
2019-04-11T02:51:55.961Z,94.39
2019-04-11T02:54:28.221Z,94.26
2019-04-11T02:57:00.407Z,94.15
2019-04-11T02:59:31.946Z,94.08
2019-04-11T03:02:04.525Z,94.10
2019-04-11T03:04:35.097Z,93.73
2019-04-11T03:07:05.967Z,93.47
2019-04-11T03:09:37.459Z,93.43
2019-04-11T03:12:13.340Z,93.11
2019-04-11T03:15:00.765Z,92.82
2019-04-11T03:17:19.589Z,92.86
2019-04-11T03:19:59.441Z,92.56
2019-04-11T03:22:18.214Z,92.75
2019-04-11T03:24:51.055Z,92.87
2019-04-11T03:27:22.562Z,93.08
2019-04-11T03:29:55.893Z,92.78
2019-04-11T03:35:50.977Z,92.55
2019-04-11T03:37:53.592Z,92.58
2019-04-11T03:40:25.834Z,92.64
2019-04-11T03:42:50.288Z,92.66
2019-04-11T03:45:33.340Z,92.75
2019-04-11T03:47:59.093Z,92.62
2019-04-11T03:50:18.938Z,92.59
2019-04-11T03:52:47.314Z,92.60
2019-04-11T03:55:19.317Z,92.55
2019-04-11T03:57:51.836Z,92.56
2019-04-11T04:00:24.787Z,92.68
2019-04-11T04:02:57.381Z,92.75
2019-04-11T04:05:30.679Z,92.79
2019-04-11T04:08:02.298Z,92.64
2019-04-11T04:10:36.166Z,92.52
2019-04-11T04:13:13.270Z,92.42
2019-04-11T04:16:12.057Z,92.47
2019-04-11T04:18:48.627Z,92.57
2019-04-11T04:21:35.353Z,92.71
2019-04-11T04:24:25.861Z,92.61
2019-04-11T04:27:01.703Z,92.62
2019-04-11T04:29:34.825Z,92.49
2019-04-11T04:32:05.409Z,92.34
2019-04-11T04:34:37.346Z,92.32
2019-04-11T04:37:08.341Z,92.11
2019-04-11T04:39:40.291Z,92.13
2019-04-11T04:42:24.230Z,92.14
2019-04-11T04:44:49.013Z,92.14
2019-04-11T04:47:32.529Z,92.19
2019-04-11T04:49:57.126Z,92.26
2019-04-11T04:52:29.552Z,92.17
2019-04-11T04:55:02.194Z,92.25
2019-04-11T04:57:35.079Z,92.20
2019-04-11T05:00:07.055Z,92.43
2019-04-11T05:02:37.593Z,92.27
2019-04-11T05:05:09.407Z,92.15
2019-04-11T05:07:42.888Z,92.39
2019-04-11T05:10:16.267Z,92.93
2019-04-11T05:12:46.893Z,93.46
2019-04-11T05:15:18.696Z,93.58
2019-04-11T05:17:51.343Z,93.57
2019-04-11T05:20:21.978Z,93.77
2019-04-11T05:22:52.617Z,93.94
2019-04-11T05:25:23.253Z,94.14
2019-04-11T05:27:54.076Z,94.06
2019-04-11T05:30:25.225Z,94.18
2019-04-11T05:32:56.302Z,94.28
2019-04-11T05:35:26.992Z,94.03
2019-04-11T05:37:57.906Z,94.41
2019-04-11T05:40:32.233Z,95.03
2019-04-11T05:43:03.840Z,95.14
2019-04-11T05:45:35.926Z,95.36
2019-04-11T05:48:11.538Z,95.79
2019-04-11T05:50:48.453Z,96.03
2019-04-11T05:53:19.848Z,95.92
2019-04-11T05:55:49.467Z,96.11
2019-04-11T05:58:20.144Z,96.08
2019-04-11T06:01:05.410Z,95.90
2019-04-11T06:03:39.423Z,96.15
2019-04-11T06:06:37.766Z,96.21
2019-04-11T06:09:13.360Z,96.24
2019-04-11T06:11:55.868Z,96.07
2019-04-11T06:14:49.351Z,95.83
2019-04-11T06:17:21.907Z,95.54
2019-04-11T06:20:20.209Z,95.17
2019-04-11T06:22:58.251Z,94.93
2019-04-11T06:25:39.076Z,94.59
2019-04-11T06:28:14.052Z,94.20
2019-04-11T06:31:04.473Z,93.64
2019-04-11T06:33:36.934Z,92.67
2019-04-11T06:36:23.297Z,92.13
2019-04-11T06:39:07.125Z,91.06
2019-04-11T06:42:00.940Z,90.17
2019-04-11T06:44:46.217Z,88.09
2019-04-11T06:47:36.767Z,87.38
2019-04-11T06:50:33.556Z,86.35
2019-04-11T06:53:04.501Z,86.37
2019-04-11T06:55:55.092Z,85.99
2019-04-11T06:58:31.855Z,85.53
2019-04-11T07:01:06.538Z,82.54
2019-04-11T07:03:42.652Z,81.09
2019-04-11T07:06:23.856Z,80.99
2019-04-11T07:09:12.509Z,79.81
2019-04-11T07:11:52.665Z,78.97
2019-04-11T07:14:35.442Z,78.74
2019-04-11T07:17:40.648Z,79.13
2019-04-11T07:20:21.799Z,79.24
2019-04-11T07:23:09.876Z,77.77
2019-04-11T07:25:47.588Z,77.05
2019-04-11T07:28:43.850Z,77.15
2019-04-11T07:31:53.099Z,76.93
2019-04-11T07:34:49.863Z,76.76
2019-04-11T07:37:28.627Z,74.87
2019-04-11T07:40:24.411Z,74.38
2019-04-11T07:43:18.459Z,72.98
2019-04-11T07:46:22.844Z,70.67
2019-04-11T07:49:03.791Z,70.63
2019-04-11T07:51:36.610Z,70.62
2019-04-11T07:54:09.898Z,70.65
2019-04-11T07:56:52.793Z,68.15
2019-04-11T07:59:42.416Z,67.75
2019-04-11T08:02:31.871Z,68.78
2019-04-11T08:05:21.496Z,69.26
2019-04-11T08:08:17.621Z,69.07
2019-04-11T08:11:00.358Z,68.33
2019-04-11T08:13:36.824Z,65.69
2019-04-11T08:16:26.673Z,66.44
2019-04-11T08:19:17.629Z,65.08
2019-04-11T08:21:56.794Z,65.60
2019-04-11T08:24:36.682Z,63.50
2019-04-11T08:27:27.387Z,62.43
2019-04-11T08:30:00.240Z,62.69
2019-04-11T08:33:00.334Z,62.67
2019-04-11T08:35:52.932Z,62.14
2019-04-11T08:38:32.183Z,62.11
2019-04-11T08:41:13.514Z,61.46
2019-04-11T08:43:45.460Z,61.59
2019-04-11T08:46:22.687Z,62.47
2019-04-11T08:48:57.273Z,61.73
2019-04-11T08:51:29.396Z,62.31
2019-04-11T08:54:18.205Z,63.58
2019-04-11T08:56:49.514Z,61.92
2019-04-11T08:59:51.473Z,63.18
2019-04-11T09:02:47.060Z,61.96
2019-04-11T09:05:33.349Z,61.93
2019-04-11T09:08:26.845Z,61.64
2019-04-11T09:11:16.890Z,62.91
2019-04-11T09:14:15.783Z,62.90
2019-04-11T09:16:56.236Z,65.11
2019-04-11T09:19:34.774Z,62.24
2019-04-11T09:22:22.921Z,61.91
2019-04-11T09:25:11.113Z,58.77
2019-04-11T09:27:51.041Z,57.03
2019-04-11T09:30:33.932Z,56.89
2019-04-11T09:33:22.671Z,55.86
2019-04-11T09:35:57.569Z,55.19
2019-04-11T09:38:28.844Z,55.06
2019-04-11T09:41:08.172Z,56.88
2019-04-11T09:43:40.038Z,58.17
2019-04-11T09:46:30.733Z,57.60
2019-04-11T09:49:25.275Z,58.18
2019-04-11T09:52:04.358Z,56.77
2019-04-11T09:54:58.837Z,56.88
2019-04-11T09:57:36.577Z,55.10
2019-04-11T10:00:28.719Z,56.48
2019-04-11T10:03:06.732Z,56.70
2019-04-11T10:06:05.303Z,56.67
2019-04-11T10:08:41.782Z,55.78
2019-04-11T10:11:40.172Z,56.45
2019-04-11T10:14:13.487Z,56.07
2019-04-11T10:17:02.294Z,55.98
2019-04-11T10:19:38.285Z,55.27
2019-04-11T10:22:32.066Z,55.80
2019-04-11T10:25:10.677Z,54.91
2019-04-11T10:27:58.784Z,56.21
2019-04-11T10:30:48.164Z,55.49
2019-04-11T10:33:37.186Z,55.93
2019-04-11T10:36:19.304Z,56.71
2019-04-11T10:38:53.481Z,55.49
2019-04-11T10:41:33.315Z,56.23
2019-04-11T10:44:06.135Z,55.65
2019-04-11T10:46:53.879Z,55.95
2019-04-11T10:49:44.185Z,56.00
2019-04-11T10:52:20.574Z,54.66
2019-04-11T10:55:09.394Z,55.26
2019-04-11T10:57:50.000Z,53.51
2019-04-11T11:00:43.196Z,54.07
2019-04-11T11:03:18.219Z,54.80
2019-04-11T11:05:51.511Z,53.31
2019-04-11T11:08:33.113Z,51.84
2019-04-11T11:11:14.789Z,51.31
2019-04-11T11:14:03.057Z,51.76
2019-04-11T11:16:41.871Z,53.87
2019-04-11T11:19:45.799Z,52.21
2019-04-11T11:22:18.866Z,50.84
2019-04-11T11:25:14.167Z,50.56
2019-04-11T11:27:43.958Z,50.68
2019-04-11T11:30:37.679Z,51.93
2019-04-11T11:33:09.854Z,50.98
2019-04-11T11:36:10.713Z,48.97
2019-04-11T11:38:46.225Z,48.62
2019-04-11T11:41:36.455Z,48.50
2019-04-11T11:44:09.807Z,48.44
2019-04-11T11:47:00.803Z,48.58
2019-04-11T11:49:44.803Z,48.68
2019-04-11T11:52:31.958Z,47.81
2019-04-11T11:55:00.074Z,47.59
2019-04-11T11:57:53.109Z,47.15
2019-04-11T12:00:27.212Z,46.39
2019-04-11T12:03:17.030Z,46.14
2019-04-11T12:05:53.668Z,47.35
2019-04-11T12:08:35.238Z,45.99
2019-04-11T12:11:10.149Z,46.71
2019-04-11T12:13:59.943Z,47.42
2019-04-11T12:17:00.346Z,46.70
2019-04-11T12:19:44.691Z,46.44
2019-04-11T12:22:08.451Z,47.50
2019-04-11T12:24:48.610Z,47.26
2019-04-11T12:27:44.188Z,47.02
2019-04-11T12:30:32.121Z,48.50
2019-04-11T12:33:30.354Z,48.75
2019-04-11T12:36:20.981Z,47.91
2019-04-11T12:39:10.914Z,47.18
2019-04-11T12:42:06.255Z,47.25
2019-04-11T12:45:06.426Z,46.94
2019-04-11T12:47:58.480Z,46.16
2019-04-11T12:51:06.936Z,46.71
2019-04-11T12:53:39.198Z,47.16
2019-04-11T12:56:35.896Z,46.12
2019-04-11T12:59:17.557Z,47.53
2019-04-11T13:02:11.555Z,47.06
2019-04-11T13:04:45.165Z,46.48
2019-04-11T13:07:34.346Z,46.13
2019-04-11T13:10:33.941Z,47.30
2019-04-11T13:13:23.396Z,46.72
2019-04-11T13:16:12.902Z,45.92
2019-04-11T13:19:00.151Z,45.79
2019-04-11T13:21:47.352Z,47.72
2019-04-11T13:24:35.891Z,47.35
2019-04-11T13:27:15.245Z,45.66
2019-04-11T13:30:04.721Z,46.32
2019-04-11T13:32:57.624Z,45.61
2019-04-11T13:35:50.287Z,46.38
2019-04-11T13:38:29.203Z,45.48
2019-04-11T13:41:20.257Z,45.58
2019-04-11T13:43:57.183Z,44.12
2019-04-11T13:46:46.720Z,43.13
2019-04-11T13:49:35.658Z,42.51
2019-04-11T13:52:28.460Z,41.10
2019-04-11T13:55:07.254Z,40.68
2019-04-11T13:57:56.785Z,40.79
2019-04-11T14:01:06.237Z,40.54
2019-04-11T14:03:55.762Z,39.88
2019-04-11T14:06:36.325Z,39.84
2019-04-11T14:09:37.840Z,40.32
2019-04-11T14:12:14.090Z,38.63
2019-04-11T14:15:05.991Z,38.17
2019-04-11T14:18:07.068Z,39.38
2019-04-11T14:20:43.027Z,39.70
2019-04-11T14:23:33.538Z,39.52
2019-04-11T14:26:14.098Z,39.94
2019-04-11T14:28:50.404Z,39.14
2019-04-11T14:31:45.703Z,39.94
2019-04-11T14:34:38.191Z,40.26
2019-04-11T14:37:45.212Z,39.61
2019-04-11T14:40:29.165Z,38.54
2019-04-11T14:43:33.761Z,38.65
2019-04-11T14:46:23.366Z,38.83
2019-04-11T14:49:10.187Z,38.82
2019-04-11T14:51:54.634Z,37.97
2019-04-11T14:54:34.824Z,38.99
2019-04-11T14:57:22.833Z,39.01
2019-04-11T14:59:56.881Z,37.41
2019-04-11T15:03:01.893Z,37.01
2019-04-11T15:05:47.647Z,36.91
2019-04-11T15:08:27.114Z,36.80
2019-04-11T15:11:18.455Z,37.33
2019-04-11T15:13:48.797Z,36.82
2019-04-11T15:16:50.287Z,35.90
2019-04-11T15:19:20.989Z,36.15
2019-04-11T15:22:12.596Z,36.23
2019-04-11T15:24:44.301Z,36.81
2019-04-11T15:27:32.362Z,37.80
2019-04-11T15:30:04.604Z,36.55
2019-04-11T15:33:03.869Z,37.89
2019-04-11T15:35:34.521Z,35.87
2019-04-11T15:38:22.508Z,37.62
2019-04-11T15:40:56.916Z,36.78
2019-04-11T15:43:45.146Z,35.99
2019-04-11T15:46:24.104Z,35.10
2019-04-11T15:49:20.569Z,34.47
2019-04-11T15:51:48.886Z,34.93
2019-04-11T15:54:41.529Z,35.89
2019-04-11T15:57:32.061Z,35.10
2019-04-11T16:00:30.662Z,34.91
2019-04-11T16:03:04.018Z,35.21
2019-04-11T16:05:52.340Z,35.37
2019-04-11T16:08:51.139Z,35.28
2019-04-11T16:11:52.662Z,34.57
2019-04-11T16:14:31.588Z,35.10
2019-04-11T16:17:21.064Z,35.21
2019-04-11T16:19:56.566Z,35.07
2019-04-11T16:22:44.855Z,35.33
2019-04-11T16:25:23.187Z,35.06
2019-04-11T16:28:12.681Z,35.55
2019-04-11T16:30:57.520Z,35.72
2019-04-11T16:33:47.897Z,35.34
2019-04-11T16:36:55.480Z,36.86
2019-04-11T16:39:55.124Z,36.25
2019-04-11T16:42:43.498Z,36.25
2019-04-11T16:45:31.553Z,36.97
2019-04-11T16:48:07.528Z,36.20
2019-04-11T16:50:37.925Z,36.48
2019-04-11T16:53:11.545Z,35.86
2019-04-11T16:55:43.219Z,36.13
2019-04-11T16:58:16.916Z,36.79
2019-04-11T17:00:53.351Z,36.93
2019-04-11T17:03:27.127Z,35.91
2019-04-11T17:06:07.122Z,36.18
2019-04-11T17:08:43.444Z,36.57
2019-04-11T17:11:18.967Z,36.71
2019-04-11T17:13:58.621Z,37.91
2019-04-11T17:16:30.870Z,37.27
2019-04-11T17:19:05.399Z,38.19
2019-04-11T17:21:42.795Z,37.56
2019-04-11T17:24:06.514Z,37.71
2019-04-11T17:26:37.140Z,37.95
2019-04-11T17:29:07.798Z,38.21
2019-04-11T17:31:38.371Z,39.04
2019-04-11T17:34:09.010Z,38.25
2019-04-11T17:36:42.106Z,38.42
2019-04-11T17:39:12.957Z,38.86
2019-04-11T17:41:43.512Z,38.83
2019-04-11T17:44:14.130Z,40.17
2019-04-11T17:46:44.826Z,40.79
2019-04-11T17:49:17.004Z,39.58
2019-04-11T17:51:55.672Z,39.80
2019-04-11T17:54:19.983Z,41.63
2019-04-11T17:56:54.845Z,43.31
2019-04-11T17:59:28.083Z,43.32
2019-04-11T18:01:57.940Z,44.72
2019-04-11T18:04:28.589Z,46.27
2019-04-11T18:06:59.258Z,46.90
2019-04-11T18:09:29.897Z,47.46
2019-04-11T18:12:00.815Z,47.72
2019-04-11T18:14:31.744Z,48.20
2019-04-11T18:17:04.620Z,49.33
2019-04-11T18:19:36.841Z,49.18
2019-04-11T18:22:08.496Z,50.60
2019-04-11T18:24:39.992Z,51.61
2019-04-11T18:27:16.173Z,51.59
2019-04-11T18:30:04.952Z,52.97
2019-04-11T18:32:35.535Z,51.67
2019-04-11T18:35:06.526Z,52.52
2019-04-11T18:37:37.085Z,52.21
2019-04-11T18:40:10.414Z,55.07
2019-04-11T18:42:41.191Z,55.68
2019-04-11T18:45:12.176Z,55.60
2019-04-11T18:47:42.787Z,56.03
2019-04-11T18:50:13.906Z,55.08
2019-04-11T18:52:44.492Z,55.01
2019-04-11T18:55:15.474Z,55.78
2019-04-11T18:57:46.215Z,55.38
2019-04-11T19:00:20.193Z,57.25
2019-04-11T19:02:51.113Z,57.41
2019-04-11T19:05:28.650Z,57.86
2019-04-11T19:07:54.185Z,58.14
2019-04-11T19:10:24.772Z,58.48
2019-04-11T19:12:55.551Z,59.41
2019-04-11T19:15:26.169Z,59.71
2019-04-11T19:18:06.303Z,59.09
2019-04-11T19:20:30.638Z,59.91
2019-04-11T19:23:01.275Z,60.49
2019-04-11T19:25:34.258Z,60.09
2019-04-11T19:28:04.946Z,60.24
2019-04-11T19:30:38.084Z,61.40
2019-04-11T19:33:08.786Z,61.57
2019-04-11T19:35:41.588Z,61.65
2019-04-11T19:38:25.313Z,62.08
2019-04-11T19:40:56.115Z,61.58
2019-04-11T19:43:26.741Z,62.49
2019-04-11T19:45:58.654Z,63.24
2019-04-11T19:48:29.501Z,62.82
2019-04-11T19:51:00.027Z,63.45
2019-04-11T19:53:32.781Z,63.59
2019-04-11T19:56:11.918Z,63.61
2019-04-11T19:58:42.579Z,64.05
2019-04-11T20:01:13.174Z,64.27
2019-04-11T20:03:43.841Z,64.43
2019-04-11T20:06:14.528Z,65.06
2019-04-11T20:08:47.651Z,65.52
2019-04-11T20:11:17.387Z,66.13
2019-04-11T20:13:48.024Z,66.55
2019-04-11T20:16:18.618Z,66.69
2019-04-11T20:18:51.213Z,67.28
2019-04-11T20:21:21.620Z,67.31
2019-04-11T20:23:52.339Z,67.20
2019-04-11T20:26:22.936Z,67.86
2019-04-11T20:28:53.565Z,67.94
2019-04-11T20:31:24.139Z,67.98
2019-04-11T20:33:54.758Z,67.97
2019-04-11T20:36:33.204Z,68.31
2019-04-11T20:38:57.722Z,68.97
2019-04-11T20:41:30.204Z,68.87
2019-04-11T20:44:00.529Z,69.39
2019-04-11T20:46:31.074Z,69.59
2019-04-11T20:49:01.825Z,69.70
2019-04-11T20:51:33.593Z,69.39
2019-04-11T20:54:07.247Z,70.53
2019-04-11T20:56:40.211Z,70.65
2019-04-11T20:59:11.870Z,70.53
2019-04-11T21:01:42.397Z,70.40
2019-04-11T21:04:13.121Z,70.70
2019-04-11T21:06:43.646Z,71.27
2019-04-11T21:09:14.443Z,71.70
2019-04-11T21:11:45.031Z,71.94
2019-04-11T21:14:15.695Z,71.90
2019-04-11T21:16:46.216Z,71.77
2019-04-11T21:19:16.884Z,72.08
2019-04-11T21:21:47.433Z,72.83
2019-04-11T21:24:18.096Z,72.77
2019-04-11T21:26:48.680Z,73.32
2019-04-11T21:29:19.266Z,72.76
2019-04-11T21:31:49.837Z,73.16
2019-04-11T21:34:20.538Z,73.22
2019-04-11T21:36:51.132Z,73.23
2019-04-11T21:39:21.730Z,73.53
2019-04-11T21:41:52.280Z,74.34
2019-04-11T21:44:22.953Z,73.88
2019-04-11T21:46:53.535Z,73.67
2019-04-11T21:49:24.145Z,74.22
2019-04-11T21:51:54.690Z,74.09
2019-04-11T21:54:25.308Z,74.50
2019-04-11T21:56:55.893Z,74.51
2019-04-11T21:59:26.503Z,74.55
2019-04-11T22:01:57.030Z,74.54
2019-04-11T22:04:31.137Z,74.52
2019-04-11T22:07:01.505Z,74.46
2019-04-11T22:09:35.513Z,75.38
2019-04-11T22:12:08.191Z,75.18
2019-04-11T22:14:41.240Z,74.94
2019-04-11T22:17:14.906Z,74.84
2019-04-11T22:19:45.818Z,74.52
2019-04-11T22:22:15.399Z,73.04
2019-04-11T22:24:45.992Z,73.41
2019-04-11T22:27:16.598Z,73.75
2019-04-11T22:29:47.118Z,70.16
2019-04-11T22:32:17.757Z,70.24
2019-04-11T22:34:48.443Z,69.77
2019-04-11T22:37:19.010Z,69.44
2019-04-11T22:39:49.539Z,70.14
2019-04-11T22:42:20.206Z,70.92
2019-04-11T22:44:50.790Z,68.21
2019-04-11T22:47:24.531Z,68.88
2019-04-11T22:49:55.115Z,70.31
2019-04-11T22:52:25.726Z,70.43
2019-04-11T22:54:56.246Z,70.33
2019-04-11T22:57:26.979Z,71.51
2019-04-11T22:59:57.600Z,71.87
2019-04-11T23:02:39.968Z,72.46
2019-04-11T23:05:10.598Z,72.69
2019-04-11T23:07:41.145Z,71.92
2019-04-11T23:10:11.816Z,71.82
2019-04-11T23:12:42.941Z,72.11
2019-04-11T23:15:15.092Z,72.24
2019-04-11T23:17:46.220Z,72.95
2019-04-11T23:20:18.848Z,73.03
2019-04-11T23:22:49.519Z,73.19
2019-04-11T23:25:22.104Z,72.68
2019-04-11T23:27:52.531Z,72.95
2019-04-11T23:30:23.069Z,73.39
2019-04-11T23:32:53.702Z,73.15
2019-04-11T23:35:24.374Z,73.11
2019-04-11T23:37:54.910Z,73.66
2019-04-11T23:40:25.436Z,73.66
2019-04-11T23:42:56.289Z,73.65
2019-04-11T23:45:28.419Z,73.92
2019-04-11T23:47:58.957Z,73.59
2019-04-11T23:50:29.516Z,72.78
2019-04-11T23:53:00.125Z,73.11
2019-04-11T23:55:30.952Z,72.65
2019-04-11T23:58:03.449Z,72.88
